<?xml version="1.0" encoding="UTF-8" standalone="no" ?><gpx xmlns="http://www.topografix.com/GPX/1/1" xmlns:gpxx="http://www.garmin.com/xmlschemas/GpxExtensions/v3" xmlns:wptx1="http://www.garmin.com/xmlschemas/WaypointExtension/v1" xmlns:gpxtpx="http://www.garmin.com/xmlschemas/TrackPointExtension/v1" creator="GuideVTT.com" version="1.1" xmlns:xsi="http://www.w3.org/2001/XMLSchema-instance" xsi:schemaLocation="http://www.topografix.com/GPX/1/1 http://www.topografix.com/GPX/1/1/gpx.xsd http://www.garmin.com/xmlschemas/GpxExtensions/v3 http://www8.garmin.com/xmlschemas/GpxExtensionsv3.xsd http://www.garmin.com/xmlschemas/WaypointExtension/v1 http://www8.garmin.com/xmlschemas/WaypointExtensionv1.xsd http://www.garmin.com/xmlschemas/TrackPointExtension/v1 http://www.garmin.com/xmlschemas/TrackPointExtensionv1.xsd">
<metadata><link href="http://www.garmin.com"><text>Garmin International</text></link><time>2013-06-22T15:13:50Z</time></metadata>
<trk><name>rp2016_27.gpx</name><extensions><gpxx:TrackExtension><gpxx:DisplayColor>Cyan</gpxx:DisplayColor></gpxx:TrackExtension></extensions><trkseg>
<trkpt lat="46.20666" lon="7.43962"><ele></ele><time>2017-1-18T3:35:18Z</time></trkpt>
<trkpt lat="46.20669" lon="7.43967"><ele></ele><time>2017-1-18T3:35:21Z</time></trkpt>
<trkpt lat="46.20671" lon="7.43971"><ele></ele><time>2017-1-18T3:35:24Z</time></trkpt>
<trkpt lat="46.20672" lon="7.43975"><ele></ele><time>2017-1-18T3:35:27Z</time></trkpt>
<trkpt lat="46.20673" lon="7.4398"><ele></ele><time>2017-1-18T3:35:30Z</time></trkpt>
<trkpt lat="46.20693" lon="7.43982"><ele></ele><time>2017-1-18T3:35:33Z</time></trkpt>
<trkpt lat="46.20712" lon="7.43965"><ele></ele><time>2017-1-18T3:35:36Z</time></trkpt>
<trkpt lat="46.2073" lon="7.4395"><ele></ele><time>2017-1-18T3:35:39Z</time></trkpt>
<trkpt lat="46.20747" lon="7.43937"><ele></ele><time>2017-1-18T3:35:42Z</time></trkpt>
<trkpt lat="46.20763" lon="7.43925"><ele></ele><time>2017-1-18T3:35:45Z</time></trkpt>
<trkpt lat="46.20768" lon="7.43922"><ele></ele><time>2017-1-18T3:35:48Z</time></trkpt>
<trkpt lat="46.20772" lon="7.43923"><ele></ele><time>2017-1-18T3:35:51Z</time></trkpt>
<trkpt lat="46.20789" lon="7.4393"><ele></ele><time>2017-1-18T3:35:54Z</time></trkpt>
<trkpt lat="46.20803" lon="7.43934"><ele></ele><time>2017-1-18T3:35:57Z</time></trkpt>
<trkpt lat="46.20822" lon="7.4394"><ele></ele><time>2017-1-18T3:36:0Z</time></trkpt>
<trkpt lat="46.2084" lon="7.43941"><ele></ele><time>2017-1-18T3:36:3Z</time></trkpt>
<trkpt lat="46.20859" lon="7.43941"><ele></ele><time>2017-1-18T3:36:6Z</time></trkpt>
<trkpt lat="46.20876" lon="7.43942"><ele></ele><time>2017-1-18T3:36:9Z</time></trkpt>
<trkpt lat="46.20898" lon="7.43936"><ele></ele><time>2017-1-18T3:36:12Z</time></trkpt>
<trkpt lat="46.2092" lon="7.43929"><ele></ele><time>2017-1-18T3:36:15Z</time></trkpt>
<trkpt lat="46.20939" lon="7.4393"><ele></ele><time>2017-1-18T3:36:18Z</time></trkpt>
<trkpt lat="46.2096" lon="7.43929"><ele></ele><time>2017-1-18T3:36:21Z</time></trkpt>
<trkpt lat="46.20982" lon="7.43914"><ele></ele><time>2017-1-18T3:36:24Z</time></trkpt>
<trkpt lat="46.20989" lon="7.43907"><ele></ele><time>2017-1-18T3:36:27Z</time></trkpt>
<trkpt lat="46.21005" lon="7.43892"><ele></ele><time>2017-1-18T3:36:30Z</time></trkpt>
<trkpt lat="46.21022" lon="7.43875"><ele></ele><time>2017-1-18T3:36:33Z</time></trkpt>
<trkpt lat="46.21039" lon="7.43856"><ele></ele><time>2017-1-18T3:36:36Z</time></trkpt>
<trkpt lat="46.21056" lon="7.43838"><ele></ele><time>2017-1-18T3:36:39Z</time></trkpt>
<trkpt lat="46.21072" lon="7.43822"><ele></ele><time>2017-1-18T3:36:42Z</time></trkpt>
<trkpt lat="46.21079" lon="7.43816"><ele></ele><time>2017-1-18T3:36:45Z</time></trkpt>
<trkpt lat="46.21095" lon="7.43801"><ele></ele><time>2017-1-18T3:36:48Z</time></trkpt>
<trkpt lat="46.2111" lon="7.43778"><ele></ele><time>2017-1-18T3:36:51Z</time></trkpt>
<trkpt lat="46.21127" lon="7.43768"><ele></ele><time>2017-1-18T3:36:54Z</time></trkpt>
<trkpt lat="46.21137" lon="7.43762"><ele></ele><time>2017-1-18T3:36:57Z</time></trkpt>
<trkpt lat="46.2115" lon="7.43753"><ele></ele><time>2017-1-18T3:37:0Z</time></trkpt>
<trkpt lat="46.21169" lon="7.43744"><ele></ele><time>2017-1-18T3:37:3Z</time></trkpt>
<trkpt lat="46.21171" lon="7.43743"><ele></ele><time>2017-1-18T3:37:6Z</time></trkpt>
<trkpt lat="46.21181" lon="7.4374"><ele></ele><time>2017-1-18T3:37:9Z</time></trkpt>
<trkpt lat="46.21184" lon="7.43738"><ele></ele><time>2017-1-18T3:37:12Z</time></trkpt>
<trkpt lat="46.21206" lon="7.43721"><ele></ele><time>2017-1-18T3:37:15Z</time></trkpt>
<trkpt lat="46.21211" lon="7.43716"><ele></ele><time>2017-1-18T3:37:18Z</time></trkpt>
<trkpt lat="46.21226" lon="7.43701"><ele></ele><time>2017-1-18T3:37:21Z</time></trkpt>
<trkpt lat="46.21229" lon="7.43698"><ele></ele><time>2017-1-18T3:37:24Z</time></trkpt>
<trkpt lat="46.2123" lon="7.43697"><ele></ele><time>2017-1-18T3:37:27Z</time></trkpt>
<trkpt lat="46.21232" lon="7.43695"><ele></ele><time>2017-1-18T3:37:30Z</time></trkpt>
<trkpt lat="46.21241" lon="7.43686"><ele></ele><time>2017-1-18T3:37:33Z</time></trkpt>
<trkpt lat="46.21248" lon="7.43679"><ele></ele><time>2017-1-18T3:37:36Z</time></trkpt>
<trkpt lat="46.21257" lon="7.4367"><ele></ele><time>2017-1-18T3:37:39Z</time></trkpt>
<trkpt lat="46.2126" lon="7.43667"><ele></ele><time>2017-1-18T3:37:42Z</time></trkpt>
<trkpt lat="46.21267" lon="7.4366"><ele></ele><time>2017-1-18T3:37:45Z</time></trkpt>
<trkpt lat="46.21273" lon="7.43654"><ele></ele><time>2017-1-18T3:37:48Z</time></trkpt>
<trkpt lat="46.21286" lon="7.43641"><ele></ele><time>2017-1-18T3:37:51Z</time></trkpt>
<trkpt lat="46.21301" lon="7.43627"><ele></ele><time>2017-1-18T3:37:54Z</time></trkpt>
<trkpt lat="46.21317" lon="7.43614"><ele></ele><time>2017-1-18T3:37:57Z</time></trkpt>
<trkpt lat="46.21327" lon="7.43604"><ele></ele><time>2017-1-18T3:38:0Z</time></trkpt>
<trkpt lat="46.21338" lon="7.43594"><ele></ele><time>2017-1-18T3:38:3Z</time></trkpt>
<trkpt lat="46.21342" lon="7.43592"><ele></ele><time>2017-1-18T3:38:6Z</time></trkpt>
<trkpt lat="46.21343" lon="7.43591"><ele></ele><time>2017-1-18T3:38:9Z</time></trkpt>
<trkpt lat="46.21345" lon="7.43589"><ele></ele><time>2017-1-18T3:38:12Z</time></trkpt>
<trkpt lat="46.21351" lon="7.43584"><ele></ele><time>2017-1-18T3:38:15Z</time></trkpt>
<trkpt lat="46.21356" lon="7.43581"><ele></ele><time>2017-1-18T3:38:18Z</time></trkpt>
<trkpt lat="46.21366" lon="7.43573"><ele></ele><time>2017-1-18T3:38:21Z</time></trkpt>
<trkpt lat="46.21371" lon="7.43569"><ele></ele><time>2017-1-18T3:38:24Z</time></trkpt>
<trkpt lat="46.21384" lon="7.43559"><ele></ele><time>2017-1-18T3:38:27Z</time></trkpt>
<trkpt lat="46.21401" lon="7.43544"><ele></ele><time>2017-1-18T3:38:30Z</time></trkpt>
<trkpt lat="46.21415" lon="7.43529"><ele></ele><time>2017-1-18T3:38:33Z</time></trkpt>
<trkpt lat="46.21431" lon="7.43513"><ele></ele><time>2017-1-18T3:38:36Z</time></trkpt>
<trkpt lat="46.21448" lon="7.43502"><ele></ele><time>2017-1-18T3:38:39Z</time></trkpt>
<trkpt lat="46.21467" lon="7.43495"><ele></ele><time>2017-1-18T3:38:42Z</time></trkpt>
<trkpt lat="46.21474" lon="7.43493"><ele></ele><time>2017-1-18T3:38:45Z</time></trkpt>
<trkpt lat="46.21477" lon="7.43493"><ele></ele><time>2017-1-18T3:38:48Z</time></trkpt>
<trkpt lat="46.21495" lon="7.43496"><ele></ele><time>2017-1-18T3:38:51Z</time></trkpt>
<trkpt lat="46.21511" lon="7.43513"><ele></ele><time>2017-1-18T3:38:54Z</time></trkpt>
<trkpt lat="46.21524" lon="7.43535"><ele></ele><time>2017-1-18T3:38:57Z</time></trkpt>
<trkpt lat="46.21538" lon="7.43553"><ele></ele><time>2017-1-18T3:39:0Z</time></trkpt>
<trkpt lat="46.21556" lon="7.43561"><ele></ele><time>2017-1-18T3:39:3Z</time></trkpt>
<trkpt lat="46.21567" lon="7.43564"><ele></ele><time>2017-1-18T3:39:6Z</time></trkpt>
<trkpt lat="46.21586" lon="7.43566"><ele></ele><time>2017-1-18T3:39:9Z</time></trkpt>
<trkpt lat="46.21605" lon="7.43567"><ele></ele><time>2017-1-18T3:39:12Z</time></trkpt>
<trkpt lat="46.21624" lon="7.43568"><ele></ele><time>2017-1-18T3:39:15Z</time></trkpt>
<trkpt lat="46.21643" lon="7.43571"><ele></ele><time>2017-1-18T3:39:18Z</time></trkpt>
<trkpt lat="46.21661" lon="7.43577"><ele></ele><time>2017-1-18T3:39:21Z</time></trkpt>
<trkpt lat="46.21679" lon="7.43583"><ele></ele><time>2017-1-18T3:39:24Z</time></trkpt>
<trkpt lat="46.21699" lon="7.43588"><ele></ele><time>2017-1-18T3:39:27Z</time></trkpt>
<trkpt lat="46.21721" lon="7.4359"><ele></ele><time>2017-1-18T3:39:30Z</time></trkpt>
<trkpt lat="46.21733" lon="7.43587"><ele></ele><time>2017-1-18T3:39:33Z</time></trkpt>
<trkpt lat="46.21752" lon="7.43582"><ele></ele><time>2017-1-18T3:39:36Z</time></trkpt>
<trkpt lat="46.2177" lon="7.43572"><ele></ele><time>2017-1-18T3:39:39Z</time></trkpt>
<trkpt lat="46.21783" lon="7.43565"><ele></ele><time>2017-1-18T3:39:42Z</time></trkpt>
<trkpt lat="46.21788" lon="7.43562"><ele></ele><time>2017-1-18T3:39:45Z</time></trkpt>
<trkpt lat="46.21806" lon="7.43551"><ele></ele><time>2017-1-18T3:39:48Z</time></trkpt>
<trkpt lat="46.21823" lon="7.43538"><ele></ele><time>2017-1-18T3:39:51Z</time></trkpt>
<trkpt lat="46.21841" lon="7.43527"><ele></ele><time>2017-1-18T3:39:54Z</time></trkpt>
<trkpt lat="46.21856" lon="7.43521"><ele></ele><time>2017-1-18T3:39:57Z</time></trkpt>
<trkpt lat="46.21876" lon="7.43516"><ele></ele><time>2017-1-18T3:40:0Z</time></trkpt>
<trkpt lat="46.21894" lon="7.43523"><ele></ele><time>2017-1-18T3:40:3Z</time></trkpt>
<trkpt lat="46.21912" lon="7.43529"><ele></ele><time>2017-1-18T3:40:6Z</time></trkpt>
<trkpt lat="46.21931" lon="7.43532"><ele></ele><time>2017-1-18T3:40:9Z</time></trkpt>
<trkpt lat="46.21949" lon="7.43531"><ele></ele><time>2017-1-18T3:40:12Z</time></trkpt>
<trkpt lat="46.21967" lon="7.43526"><ele></ele><time>2017-1-18T3:40:15Z</time></trkpt>
<trkpt lat="46.21987" lon="7.43522"><ele></ele><time>2017-1-18T3:40:18Z</time></trkpt>
<trkpt lat="46.22005" lon="7.43516"><ele></ele><time>2017-1-18T3:40:21Z</time></trkpt>
<trkpt lat="46.22029" lon="7.43526"><ele></ele><time>2017-1-18T3:40:24Z</time></trkpt>
<trkpt lat="46.22039" lon="7.4355"><ele></ele><time>2017-1-18T3:40:27Z</time></trkpt>
<trkpt lat="46.22041" lon="7.43559"><ele></ele><time>2017-1-18T3:40:30Z</time></trkpt>
<trkpt lat="46.2204" lon="7.43584"><ele></ele><time>2017-1-18T3:40:33Z</time></trkpt>
<trkpt lat="46.22022" lon="7.43592"><ele></ele><time>2017-1-18T3:40:36Z</time></trkpt>
<trkpt lat="46.22003" lon="7.43605"><ele></ele><time>2017-1-18T3:40:39Z</time></trkpt>
<trkpt lat="46.22001" lon="7.43615"><ele></ele><time>2017-1-18T3:40:42Z</time></trkpt>
<trkpt lat="46.22003" lon="7.43634"><ele></ele><time>2017-1-18T3:40:45Z</time></trkpt>
<trkpt lat="46.22015" lon="7.43643"><ele></ele><time>2017-1-18T3:40:48Z</time></trkpt>
<trkpt lat="46.22032" lon="7.43653"><ele></ele><time>2017-1-18T3:40:51Z</time></trkpt>
<trkpt lat="46.22041" lon="7.43658"><ele></ele><time>2017-1-18T3:40:54Z</time></trkpt>
<trkpt lat="46.22043" lon="7.43661"><ele></ele><time>2017-1-18T3:40:57Z</time></trkpt>
<trkpt lat="46.2204" lon="7.43676"><ele></ele><time>2017-1-18T3:41:0Z</time></trkpt>
<trkpt lat="46.22015" lon="7.43687"><ele></ele><time>2017-1-18T3:41:3Z</time></trkpt>
<trkpt lat="46.22003" lon="7.43688"><ele></ele><time>2017-1-18T3:41:6Z</time></trkpt>
<trkpt lat="46.21997" lon="7.43688"><ele></ele><time>2017-1-18T3:41:9Z</time></trkpt>
<trkpt lat="46.21989" lon="7.43689"><ele></ele><time>2017-1-18T3:41:12Z</time></trkpt>
<trkpt lat="46.21982" lon="7.4369"><ele></ele><time>2017-1-18T3:41:15Z</time></trkpt>
<trkpt lat="46.21968" lon="7.43692"><ele></ele><time>2017-1-18T3:41:18Z</time></trkpt>
<trkpt lat="46.2195" lon="7.43695"><ele></ele><time>2017-1-18T3:41:21Z</time></trkpt>
<trkpt lat="46.21927" lon="7.43696"><ele></ele><time>2017-1-18T3:41:24Z</time></trkpt>
<trkpt lat="46.21913" lon="7.43698"><ele></ele><time>2017-1-18T3:41:27Z</time></trkpt>
<trkpt lat="46.21895" lon="7.43703"><ele></ele><time>2017-1-18T3:41:30Z</time></trkpt>
<trkpt lat="46.21879" lon="7.43716"><ele></ele><time>2017-1-18T3:41:33Z</time></trkpt>
<trkpt lat="46.21867" lon="7.43739"><ele></ele><time>2017-1-18T3:41:36Z</time></trkpt>
<trkpt lat="46.21864" lon="7.43745"><ele></ele><time>2017-1-18T3:41:39Z</time></trkpt>
<trkpt lat="46.21857" lon="7.43762"><ele></ele><time>2017-1-18T3:41:42Z</time></trkpt>
<trkpt lat="46.21854" lon="7.43767"><ele></ele><time>2017-1-18T3:41:45Z</time></trkpt>
<trkpt lat="46.21853" lon="7.43772"><ele></ele><time>2017-1-18T3:41:48Z</time></trkpt>
<trkpt lat="46.21853" lon="7.43776"><ele></ele><time>2017-1-18T3:41:51Z</time></trkpt>
<trkpt lat="46.21852" lon="7.43777"><ele></ele><time>2017-1-18T3:41:54Z</time></trkpt>
<trkpt lat="46.21843" lon="7.43795"><ele></ele><time>2017-1-18T3:41:57Z</time></trkpt>
<trkpt lat="46.21832" lon="7.43825"><ele></ele><time>2017-1-18T3:42:0Z</time></trkpt>
<trkpt lat="46.21819" lon="7.43845"><ele></ele><time>2017-1-18T3:42:3Z</time></trkpt>
<trkpt lat="46.21808" lon="7.43866"><ele></ele><time>2017-1-18T3:42:6Z</time></trkpt>
<trkpt lat="46.21795" lon="7.43887"><ele></ele><time>2017-1-18T3:42:9Z</time></trkpt>
<trkpt lat="46.21781" lon="7.43904"><ele></ele><time>2017-1-18T3:42:12Z</time></trkpt>
<trkpt lat="46.21768" lon="7.43914"><ele></ele><time>2017-1-18T3:42:15Z</time></trkpt>
<trkpt lat="46.21756" lon="7.43926"><ele></ele><time>2017-1-18T3:42:18Z</time></trkpt>
<trkpt lat="46.21743" lon="7.43933"><ele></ele><time>2017-1-18T3:42:21Z</time></trkpt>
<trkpt lat="46.21742" lon="7.43933"><ele></ele><time>2017-1-18T3:42:24Z</time></trkpt>
<trkpt lat="46.21741" lon="7.43932"><ele></ele><time>2017-1-18T3:42:27Z</time></trkpt>
<trkpt lat="46.21742" lon="7.4393"><ele></ele><time>2017-1-18T3:42:30Z</time></trkpt>
<trkpt lat="46.21743" lon="7.4393"><ele></ele><time>2017-1-18T3:42:33Z</time></trkpt>
<trkpt lat="46.21743" lon="7.4393"><ele></ele><time>2017-1-18T3:42:36Z</time></trkpt>
<trkpt lat="46.21744" lon="7.4393"><ele></ele><time>2017-1-18T3:42:39Z</time></trkpt>
<trkpt lat="46.21744" lon="7.43931"><ele></ele><time>2017-1-18T3:42:42Z</time></trkpt>
<trkpt lat="46.21744" lon="7.4393"><ele></ele><time>2017-1-18T3:42:45Z</time></trkpt>
<trkpt lat="46.21744" lon="7.43929"><ele></ele><time>2017-1-18T3:42:48Z</time></trkpt>
<trkpt lat="46.21744" lon="7.43929"><ele></ele><time>2017-1-18T3:42:51Z</time></trkpt>
<trkpt lat="46.21744" lon="7.43929"><ele></ele><time>2017-1-18T3:42:54Z</time></trkpt>
<trkpt lat="46.21744" lon="7.4393"><ele></ele><time>2017-1-18T3:42:57Z</time></trkpt>
<trkpt lat="46.21744" lon="7.4393"><ele></ele><time>2017-1-18T3:43:0Z</time></trkpt>
<trkpt lat="46.21744" lon="7.43931"><ele></ele><time>2017-1-18T3:43:3Z</time></trkpt>
<trkpt lat="46.21744" lon="7.43931"><ele></ele><time>2017-1-18T3:43:6Z</time></trkpt>
<trkpt lat="46.21743" lon="7.43932"><ele></ele><time>2017-1-18T3:43:9Z</time></trkpt>
<trkpt lat="46.21743" lon="7.43932"><ele></ele><time>2017-1-18T3:43:12Z</time></trkpt>
<trkpt lat="46.21743" lon="7.43932"><ele></ele><time>2017-1-18T3:43:15Z</time></trkpt>
<trkpt lat="46.21744" lon="7.43934"><ele></ele><time>2017-1-18T3:43:18Z</time></trkpt>
<trkpt lat="46.21744" lon="7.43934"><ele></ele><time>2017-1-18T3:43:21Z</time></trkpt>
<trkpt lat="46.21742" lon="7.4393"><ele></ele><time>2017-1-18T3:43:24Z</time></trkpt>
<trkpt lat="46.21742" lon="7.43931"><ele></ele><time>2017-1-18T3:43:27Z</time></trkpt>
<trkpt lat="46.2174" lon="7.43936"><ele></ele><time>2017-1-18T3:43:30Z</time></trkpt>
<trkpt lat="46.2174" lon="7.43936"><ele></ele><time>2017-1-18T3:43:33Z</time></trkpt>
<trkpt lat="46.21729" lon="7.43949"><ele></ele><time>2017-1-18T3:43:36Z</time></trkpt>
<trkpt lat="46.21722" lon="7.43957"><ele></ele><time>2017-1-18T3:43:39Z</time></trkpt>
<trkpt lat="46.21716" lon="7.43966"><ele></ele><time>2017-1-18T3:43:42Z</time></trkpt>
<trkpt lat="46.21711" lon="7.43974"><ele></ele><time>2017-1-18T3:43:45Z</time></trkpt>
<trkpt lat="46.21699" lon="7.43991"><ele></ele><time>2017-1-18T3:43:48Z</time></trkpt>
<trkpt lat="46.21683" lon="7.44007"><ele></ele><time>2017-1-18T3:43:51Z</time></trkpt>
<trkpt lat="46.21668" lon="7.4402"><ele></ele><time>2017-1-18T3:43:54Z</time></trkpt>
<trkpt lat="46.21651" lon="7.44041"><ele></ele><time>2017-1-18T3:43:57Z</time></trkpt>
<trkpt lat="46.21649" lon="7.44042"><ele></ele><time>2017-1-18T3:44:0Z</time></trkpt>
<trkpt lat="46.2164" lon="7.44051"><ele></ele><time>2017-1-18T3:44:3Z</time></trkpt>
<trkpt lat="46.21627" lon="7.44066"><ele></ele><time>2017-1-18T3:44:6Z</time></trkpt>
<trkpt lat="46.21623" lon="7.44069"><ele></ele><time>2017-1-18T3:44:9Z</time></trkpt>
<trkpt lat="46.21621" lon="7.44073"><ele></ele><time>2017-1-18T3:44:12Z</time></trkpt>
<trkpt lat="46.21618" lon="7.44077"><ele></ele><time>2017-1-18T3:44:15Z</time></trkpt>
<trkpt lat="46.21617" lon="7.44079"><ele></ele><time>2017-1-18T3:44:18Z</time></trkpt>
<trkpt lat="46.21615" lon="7.44083"><ele></ele><time>2017-1-18T3:44:21Z</time></trkpt>
<trkpt lat="46.21612" lon="7.44086"><ele></ele><time>2017-1-18T3:44:24Z</time></trkpt>
<trkpt lat="46.21611" lon="7.4409"><ele></ele><time>2017-1-18T3:44:27Z</time></trkpt>
<trkpt lat="46.21609" lon="7.44094"><ele></ele><time>2017-1-18T3:44:30Z</time></trkpt>
<trkpt lat="46.21607" lon="7.44099"><ele></ele><time>2017-1-18T3:44:33Z</time></trkpt>
<trkpt lat="46.21601" lon="7.44125"><ele></ele><time>2017-1-18T3:44:36Z</time></trkpt>
<trkpt lat="46.21591" lon="7.44148"><ele></ele><time>2017-1-18T3:44:39Z</time></trkpt>
<trkpt lat="46.21589" lon="7.44152"><ele></ele><time>2017-1-18T3:44:42Z</time></trkpt>
<trkpt lat="46.2158" lon="7.44175"><ele></ele><time>2017-1-18T3:44:45Z</time></trkpt>
<trkpt lat="46.21576" lon="7.44186"><ele></ele><time>2017-1-18T3:44:48Z</time></trkpt>
<trkpt lat="46.21575" lon="7.44194"><ele></ele><time>2017-1-18T3:44:51Z</time></trkpt>
<trkpt lat="46.21566" lon="7.44218"><ele></ele><time>2017-1-18T3:44:54Z</time></trkpt>
<trkpt lat="46.21563" lon="7.44225"><ele></ele><time>2017-1-18T3:44:57Z</time></trkpt>
<trkpt lat="46.21559" lon="7.44231"><ele></ele><time>2017-1-18T3:45:0Z</time></trkpt>
<trkpt lat="46.21553" lon="7.44237"><ele></ele><time>2017-1-18T3:45:3Z</time></trkpt>
<trkpt lat="46.21551" lon="7.44242"><ele></ele><time>2017-1-18T3:45:6Z</time></trkpt>
<trkpt lat="46.21541" lon="7.44266"><ele></ele><time>2017-1-18T3:45:9Z</time></trkpt>
<trkpt lat="46.21541" lon="7.44267"><ele></ele><time>2017-1-18T3:45:12Z</time></trkpt>
<trkpt lat="46.21532" lon="7.4429"><ele></ele><time>2017-1-18T3:45:15Z</time></trkpt>
<trkpt lat="46.21526" lon="7.44308"><ele></ele><time>2017-1-18T3:45:18Z</time></trkpt>
<trkpt lat="46.21529" lon="7.44302"><ele></ele><time>2017-1-18T3:45:21Z</time></trkpt>
<trkpt lat="46.21535" lon="7.44295"><ele></ele><time>2017-1-18T3:45:24Z</time></trkpt>
<trkpt lat="46.21551" lon="7.44281"><ele></ele><time>2017-1-18T3:45:27Z</time></trkpt>
<trkpt lat="46.21558" lon="7.44276"><ele></ele><time>2017-1-18T3:45:30Z</time></trkpt>
<trkpt lat="46.21575" lon="7.44271"><ele></ele><time>2017-1-18T3:45:33Z</time></trkpt>
<trkpt lat="46.2158" lon="7.44272"><ele></ele><time>2017-1-18T3:45:36Z</time></trkpt>
<trkpt lat="46.21587" lon="7.44274"><ele></ele><time>2017-1-18T3:45:39Z</time></trkpt>
<trkpt lat="46.21591" lon="7.4428"><ele></ele><time>2017-1-18T3:45:42Z</time></trkpt>
<trkpt lat="46.21588" lon="7.44293"><ele></ele><time>2017-1-18T3:45:45Z</time></trkpt>
<trkpt lat="46.21586" lon="7.44295"><ele></ele><time>2017-1-18T3:45:48Z</time></trkpt>
<trkpt lat="46.21576" lon="7.44297"><ele></ele><time>2017-1-18T3:45:51Z</time></trkpt>
<trkpt lat="46.21558" lon="7.44306"><ele></ele><time>2017-1-18T3:45:54Z</time></trkpt>
<trkpt lat="46.21544" lon="7.44322"><ele></ele><time>2017-1-18T3:45:57Z</time></trkpt>
<trkpt lat="46.21537" lon="7.44346"><ele></ele><time>2017-1-18T3:46:0Z</time></trkpt>
<trkpt lat="46.21534" lon="7.44373"><ele></ele><time>2017-1-18T3:46:3Z</time></trkpt>
<trkpt lat="46.2153" lon="7.44399"><ele></ele><time>2017-1-18T3:46:6Z</time></trkpt>
<trkpt lat="46.21526" lon="7.44425"><ele></ele><time>2017-1-18T3:46:9Z</time></trkpt>
<trkpt lat="46.21523" lon="7.4445"><ele></ele><time>2017-1-18T3:46:12Z</time></trkpt>
<trkpt lat="46.2152" lon="7.4446"><ele></ele><time>2017-1-18T3:46:15Z</time></trkpt>
<trkpt lat="46.21513" lon="7.44492"><ele></ele><time>2017-1-18T3:46:18Z</time></trkpt>
<trkpt lat="46.21507" lon="7.44517"><ele></ele><time>2017-1-18T3:46:21Z</time></trkpt>
<trkpt lat="46.21499" lon="7.44541"><ele></ele><time>2017-1-18T3:46:24Z</time></trkpt>
<trkpt lat="46.21493" lon="7.44562"><ele></ele><time>2017-1-18T3:46:27Z</time></trkpt>
<trkpt lat="46.21487" lon="7.44588"><ele></ele><time>2017-1-18T3:46:30Z</time></trkpt>
<trkpt lat="46.21485" lon="7.446"><ele></ele><time>2017-1-18T3:46:33Z</time></trkpt>
<trkpt lat="46.21479" lon="7.44625"><ele></ele><time>2017-1-18T3:46:36Z</time></trkpt>
<trkpt lat="46.2147" lon="7.44655"><ele></ele><time>2017-1-18T3:46:39Z</time></trkpt>
<trkpt lat="46.21458" lon="7.44676"><ele></ele><time>2017-1-18T3:46:42Z</time></trkpt>
<trkpt lat="46.21444" lon="7.44694"><ele></ele><time>2017-1-18T3:46:45Z</time></trkpt>
<trkpt lat="46.2143" lon="7.44712"><ele></ele><time>2017-1-18T3:46:48Z</time></trkpt>
<trkpt lat="46.21416" lon="7.4473"><ele></ele><time>2017-1-18T3:46:51Z</time></trkpt>
<trkpt lat="46.21402" lon="7.44747"><ele></ele><time>2017-1-18T3:46:54Z</time></trkpt>
<trkpt lat="46.21391" lon="7.44765"><ele></ele><time>2017-1-18T3:46:57Z</time></trkpt>
<trkpt lat="46.21381" lon="7.44777"><ele></ele><time>2017-1-18T3:47:0Z</time></trkpt>
<trkpt lat="46.21364" lon="7.44794"><ele></ele><time>2017-1-18T3:47:3Z</time></trkpt>
<trkpt lat="46.21346" lon="7.44805"><ele></ele><time>2017-1-18T3:47:6Z</time></trkpt>
<trkpt lat="46.21331" lon="7.44819"><ele></ele><time>2017-1-18T3:47:9Z</time></trkpt>
<trkpt lat="46.21322" lon="7.44844"><ele></ele><time>2017-1-18T3:47:12Z</time></trkpt>
<trkpt lat="46.21313" lon="7.44869"><ele></ele><time>2017-1-18T3:47:15Z</time></trkpt>
<trkpt lat="46.21301" lon="7.44887"><ele></ele><time>2017-1-18T3:47:18Z</time></trkpt>
<trkpt lat="46.21285" lon="7.44904"><ele></ele><time>2017-1-18T3:47:21Z</time></trkpt>
<trkpt lat="46.21274" lon="7.44915"><ele></ele><time>2017-1-18T3:47:24Z</time></trkpt>
<trkpt lat="46.21258" lon="7.44938"><ele></ele><time>2017-1-18T3:47:27Z</time></trkpt>
<trkpt lat="46.21252" lon="7.44944"><ele></ele><time>2017-1-18T3:47:30Z</time></trkpt>
<trkpt lat="46.21243" lon="7.44957"><ele></ele><time>2017-1-18T3:47:33Z</time></trkpt>
<trkpt lat="46.21226" lon="7.44971"><ele></ele><time>2017-1-18T3:47:36Z</time></trkpt>
<trkpt lat="46.2121" lon="7.44983"><ele></ele><time>2017-1-18T3:47:39Z</time></trkpt>
<trkpt lat="46.21193" lon="7.44992"><ele></ele><time>2017-1-18T3:47:42Z</time></trkpt>
<trkpt lat="46.21179" lon="7.45"><ele></ele><time>2017-1-18T3:47:45Z</time></trkpt>
<trkpt lat="46.21161" lon="7.45012"><ele></ele><time>2017-1-18T3:47:48Z</time></trkpt>
<trkpt lat="46.2115" lon="7.45022"><ele></ele><time>2017-1-18T3:47:51Z</time></trkpt>
<trkpt lat="46.21134" lon="7.45034"><ele></ele><time>2017-1-18T3:47:54Z</time></trkpt>
<trkpt lat="46.21121" lon="7.45045"><ele></ele><time>2017-1-18T3:47:57Z</time></trkpt>
<trkpt lat="46.21094" lon="7.45065"><ele></ele><time>2017-1-18T3:48:0Z</time></trkpt>
<trkpt lat="46.21078" lon="7.45078"><ele></ele><time>2017-1-18T3:48:3Z</time></trkpt>
<trkpt lat="46.21068" lon="7.45087"><ele></ele><time>2017-1-18T3:48:6Z</time></trkpt>
<trkpt lat="46.21066" lon="7.45089"><ele></ele><time>2017-1-18T3:48:9Z</time></trkpt>
<trkpt lat="46.21049" lon="7.45102"><ele></ele><time>2017-1-18T3:48:12Z</time></trkpt>
<trkpt lat="46.21042" lon="7.45107"><ele></ele><time>2017-1-18T3:48:15Z</time></trkpt>
<trkpt lat="46.21024" lon="7.45117"><ele></ele><time>2017-1-18T3:48:18Z</time></trkpt>
<trkpt lat="46.21004" lon="7.45125"><ele></ele><time>2017-1-18T3:48:21Z</time></trkpt>
<trkpt lat="46.20986" lon="7.4513"><ele></ele><time>2017-1-18T3:48:24Z</time></trkpt>
<trkpt lat="46.20967" lon="7.45135"><ele></ele><time>2017-1-18T3:48:27Z</time></trkpt>
<trkpt lat="46.20957" lon="7.45135"><ele></ele><time>2017-1-18T3:48:30Z</time></trkpt>
<trkpt lat="46.20939" lon="7.45139"><ele></ele><time>2017-1-18T3:48:33Z</time></trkpt>
<trkpt lat="46.20919" lon="7.45143"><ele></ele><time>2017-1-18T3:48:36Z</time></trkpt>
<trkpt lat="46.209" lon="7.45146"><ele></ele><time>2017-1-18T3:48:39Z</time></trkpt>
<trkpt lat="46.20881" lon="7.45148"><ele></ele><time>2017-1-18T3:48:42Z</time></trkpt>
<trkpt lat="46.20862" lon="7.45149"><ele></ele><time>2017-1-18T3:48:45Z</time></trkpt>
<trkpt lat="46.2084" lon="7.45152"><ele></ele><time>2017-1-18T3:48:48Z</time></trkpt>
<trkpt lat="46.20821" lon="7.45151"><ele></ele><time>2017-1-18T3:48:51Z</time></trkpt>
<trkpt lat="46.20803" lon="7.45146"><ele></ele><time>2017-1-18T3:48:54Z</time></trkpt>
<trkpt lat="46.20784" lon="7.45146"><ele></ele><time>2017-1-18T3:48:57Z</time></trkpt>
<trkpt lat="46.20765" lon="7.45146"><ele></ele><time>2017-1-18T3:49:0Z</time></trkpt>
<trkpt lat="46.20746" lon="7.45147"><ele></ele><time>2017-1-18T3:49:3Z</time></trkpt>
<trkpt lat="46.20728" lon="7.45149"><ele></ele><time>2017-1-18T3:49:6Z</time></trkpt>
<trkpt lat="46.20707" lon="7.45152"><ele></ele><time>2017-1-18T3:49:9Z</time></trkpt>
<trkpt lat="46.20688" lon="7.45154"><ele></ele><time>2017-1-18T3:49:12Z</time></trkpt>
<trkpt lat="46.2067" lon="7.45162"><ele></ele><time>2017-1-18T3:49:15Z</time></trkpt>
<trkpt lat="46.20665" lon="7.45165"><ele></ele><time>2017-1-18T3:49:18Z</time></trkpt>
<trkpt lat="46.2066" lon="7.45168"><ele></ele><time>2017-1-18T3:49:21Z</time></trkpt>
<trkpt lat="46.20646" lon="7.45179"><ele></ele><time>2017-1-18T3:49:24Z</time></trkpt>
<trkpt lat="46.20627" lon="7.45187"><ele></ele><time>2017-1-18T3:49:27Z</time></trkpt>
<trkpt lat="46.2061" lon="7.45195"><ele></ele><time>2017-1-18T3:49:30Z</time></trkpt>
<trkpt lat="46.206" lon="7.45197"><ele></ele><time>2017-1-18T3:49:33Z</time></trkpt>
<trkpt lat="46.20581" lon="7.45196"><ele></ele><time>2017-1-18T3:49:36Z</time></trkpt>
<trkpt lat="46.20556" lon="7.4519"><ele></ele><time>2017-1-18T3:49:39Z</time></trkpt>
<trkpt lat="46.20538" lon="7.4519"><ele></ele><time>2017-1-18T3:49:42Z</time></trkpt>
<trkpt lat="46.20519" lon="7.45187"><ele></ele><time>2017-1-18T3:49:45Z</time></trkpt>
<trkpt lat="46.205" lon="7.45181"><ele></ele><time>2017-1-18T3:49:48Z</time></trkpt>
<trkpt lat="46.2048" lon="7.4518"><ele></ele><time>2017-1-18T3:49:51Z</time></trkpt>
<trkpt lat="46.2047" lon="7.45182"><ele></ele><time>2017-1-18T3:49:54Z</time></trkpt>
<trkpt lat="46.20468" lon="7.45183"><ele></ele><time>2017-1-18T3:49:57Z</time></trkpt>
<trkpt lat="46.20455" lon="7.45186"><ele></ele><time>2017-1-18T3:50:0Z</time></trkpt>
<trkpt lat="46.20428" lon="7.4519"><ele></ele><time>2017-1-18T3:50:3Z</time></trkpt>
<trkpt lat="46.20423" lon="7.45191"><ele></ele><time>2017-1-18T3:50:6Z</time></trkpt>
<trkpt lat="46.20421" lon="7.45192"><ele></ele><time>2017-1-18T3:50:9Z</time></trkpt>
<trkpt lat="46.20411" lon="7.45195"><ele></ele><time>2017-1-18T3:50:12Z</time></trkpt>
<trkpt lat="46.20409" lon="7.45195"><ele></ele><time>2017-1-18T3:50:15Z</time></trkpt>
<trkpt lat="46.2039" lon="7.45198"><ele></ele><time>2017-1-18T3:50:18Z</time></trkpt>
<trkpt lat="46.20373" lon="7.45202"><ele></ele><time>2017-1-18T3:50:21Z</time></trkpt>
<trkpt lat="46.20359" lon="7.45204"><ele></ele><time>2017-1-18T3:50:24Z</time></trkpt>
<trkpt lat="46.20342" lon="7.45194"><ele></ele><time>2017-1-18T3:50:27Z</time></trkpt>
<trkpt lat="46.20337" lon="7.45189"><ele></ele><time>2017-1-18T3:50:30Z</time></trkpt>
<trkpt lat="46.20333" lon="7.45169"><ele></ele><time>2017-1-18T3:50:33Z</time></trkpt>
<trkpt lat="46.20333" lon="7.4515"><ele></ele><time>2017-1-18T3:50:36Z</time></trkpt>
<trkpt lat="46.2033" lon="7.45124"><ele></ele><time>2017-1-18T3:50:39Z</time></trkpt>
<trkpt lat="46.20318" lon="7.45103"><ele></ele><time>2017-1-18T3:50:42Z</time></trkpt>
<trkpt lat="46.20304" lon="7.45085"><ele></ele><time>2017-1-18T3:50:45Z</time></trkpt>
<trkpt lat="46.20295" lon="7.45069"><ele></ele><time>2017-1-18T3:50:48Z</time></trkpt>
<trkpt lat="46.20289" lon="7.4505"><ele></ele><time>2017-1-18T3:50:51Z</time></trkpt>
<trkpt lat="46.20282" lon="7.45023"><ele></ele><time>2017-1-18T3:50:54Z</time></trkpt>
<trkpt lat="46.20278" lon="7.45009"><ele></ele><time>2017-1-18T3:50:57Z</time></trkpt>
<trkpt lat="46.20268" lon="7.44985"><ele></ele><time>2017-1-18T3:51:0Z</time></trkpt>
<trkpt lat="46.20249" lon="7.4497"><ele></ele><time>2017-1-18T3:51:3Z</time></trkpt>
<trkpt lat="46.20228" lon="7.44973"><ele></ele><time>2017-1-18T3:51:6Z</time></trkpt>
<trkpt lat="46.20223" lon="7.44976"><ele></ele><time>2017-1-18T3:51:9Z</time></trkpt>
<trkpt lat="46.20218" lon="7.44978"><ele></ele><time>2017-1-18T3:51:12Z</time></trkpt>
<trkpt lat="46.202" lon="7.44987"><ele></ele><time>2017-1-18T3:51:15Z</time></trkpt>
<trkpt lat="46.20181" lon="7.45006"><ele></ele><time>2017-1-18T3:51:18Z</time></trkpt>
<trkpt lat="46.20172" lon="7.45017"><ele></ele><time>2017-1-18T3:51:21Z</time></trkpt>
<trkpt lat="46.2016" lon="7.45045"><ele></ele><time>2017-1-18T3:51:24Z</time></trkpt>
<trkpt lat="46.20157" lon="7.4506"><ele></ele><time>2017-1-18T3:51:27Z</time></trkpt>
<trkpt lat="46.20152" lon="7.45093"><ele></ele><time>2017-1-18T3:51:30Z</time></trkpt>
<trkpt lat="46.20147" lon="7.4511"><ele></ele><time>2017-1-18T3:51:33Z</time></trkpt>
<trkpt lat="46.20134" lon="7.45138"><ele></ele><time>2017-1-18T3:51:36Z</time></trkpt>
<trkpt lat="46.2013" lon="7.45143"><ele></ele><time>2017-1-18T3:51:39Z</time></trkpt>
<trkpt lat="46.20116" lon="7.45155"><ele></ele><time>2017-1-18T3:51:42Z</time></trkpt>
<trkpt lat="46.20094" lon="7.45157"><ele></ele><time>2017-1-18T3:51:45Z</time></trkpt>
<trkpt lat="46.20088" lon="7.45159"><ele></ele><time>2017-1-18T3:51:48Z</time></trkpt>
<trkpt lat="46.20067" lon="7.45171"><ele></ele><time>2017-1-18T3:51:51Z</time></trkpt>
<trkpt lat="46.20061" lon="7.45175"><ele></ele><time>2017-1-18T3:51:54Z</time></trkpt>
<trkpt lat="46.20058" lon="7.45178"><ele></ele><time>2017-1-18T3:51:57Z</time></trkpt>
<trkpt lat="46.2006" lon="7.45164"><ele></ele><time>2017-1-18T3:52:0Z</time></trkpt>
<trkpt lat="46.20071" lon="7.45144"><ele></ele><time>2017-1-18T3:52:3Z</time></trkpt>
<trkpt lat="46.20087" lon="7.45118"><ele></ele><time>2017-1-18T3:52:6Z</time></trkpt>
<trkpt lat="46.20092" lon="7.45111"><ele></ele><time>2017-1-18T3:52:9Z</time></trkpt>
<trkpt lat="46.20107" lon="7.45092"><ele></ele><time>2017-1-18T3:52:12Z</time></trkpt>
<trkpt lat="46.2012" lon="7.45068"><ele></ele><time>2017-1-18T3:52:15Z</time></trkpt>
<trkpt lat="46.20131" lon="7.45041"><ele></ele><time>2017-1-18T3:52:18Z</time></trkpt>
<trkpt lat="46.20136" lon="7.45024"><ele></ele><time>2017-1-18T3:52:21Z</time></trkpt>
<trkpt lat="46.20138" lon="7.45015"><ele></ele><time>2017-1-18T3:52:24Z</time></trkpt>
<trkpt lat="46.2014" lon="7.45007"><ele></ele><time>2017-1-18T3:52:27Z</time></trkpt>
<trkpt lat="46.20143" lon="7.44985"><ele></ele><time>2017-1-18T3:52:30Z</time></trkpt>
<trkpt lat="46.20143" lon="7.44966"><ele></ele><time>2017-1-18T3:52:33Z</time></trkpt>
<trkpt lat="46.20145" lon="7.44954"><ele></ele><time>2017-1-18T3:52:36Z</time></trkpt>
<trkpt lat="46.20149" lon="7.44942"><ele></ele><time>2017-1-18T3:52:39Z</time></trkpt>
<trkpt lat="46.20161" lon="7.44924"><ele></ele><time>2017-1-18T3:52:42Z</time></trkpt>
<trkpt lat="46.20168" lon="7.44916"><ele></ele><time>2017-1-18T3:52:45Z</time></trkpt>
<trkpt lat="46.20182" lon="7.44897"><ele></ele><time>2017-1-18T3:52:48Z</time></trkpt>
<trkpt lat="46.20196" lon="7.44873"><ele></ele><time>2017-1-18T3:52:51Z</time></trkpt>
<trkpt lat="46.202" lon="7.44866"><ele></ele><time>2017-1-18T3:52:54Z</time></trkpt>
<trkpt lat="46.20216" lon="7.44849"><ele></ele><time>2017-1-18T3:52:57Z</time></trkpt>
<trkpt lat="46.20233" lon="7.44833"><ele></ele><time>2017-1-18T3:53:0Z</time></trkpt>
<trkpt lat="46.20237" lon="7.44828"><ele></ele><time>2017-1-18T3:53:3Z</time></trkpt>
<trkpt lat="46.20244" lon="7.44818"><ele></ele><time>2017-1-18T3:53:6Z</time></trkpt>
<trkpt lat="46.20262" lon="7.44815"><ele></ele><time>2017-1-18T3:53:9Z</time></trkpt>
<trkpt lat="46.20278" lon="7.44808"><ele></ele><time>2017-1-18T3:53:12Z</time></trkpt>
<trkpt lat="46.20284" lon="7.44806"><ele></ele><time>2017-1-18T3:53:15Z</time></trkpt>
<trkpt lat="46.20301" lon="7.44805"><ele></ele><time>2017-1-18T3:53:18Z</time></trkpt>
<trkpt lat="46.20307" lon="7.44807"><ele></ele><time>2017-1-18T3:53:21Z</time></trkpt>
<trkpt lat="46.20326" lon="7.4482"><ele></ele><time>2017-1-18T3:53:24Z</time></trkpt>
<trkpt lat="46.20342" lon="7.44834"><ele></ele><time>2017-1-18T3:53:27Z</time></trkpt>
<trkpt lat="46.20346" lon="7.44837"><ele></ele><time>2017-1-18T3:53:30Z</time></trkpt>
<trkpt lat="46.20347" lon="7.4482"><ele></ele><time>2017-1-18T3:53:33Z</time></trkpt>
<trkpt lat="46.20329" lon="7.44808"><ele></ele><time>2017-1-18T3:53:36Z</time></trkpt>
<trkpt lat="46.20324" lon="7.44803"><ele></ele><time>2017-1-18T3:53:39Z</time></trkpt>
<trkpt lat="46.2031" lon="7.44787"><ele></ele><time>2017-1-18T3:53:42Z</time></trkpt>
<trkpt lat="46.20304" lon="7.44782"><ele></ele><time>2017-1-18T3:53:45Z</time></trkpt>
<trkpt lat="46.20297" lon="7.44777"><ele></ele><time>2017-1-18T3:53:48Z</time></trkpt>
<trkpt lat="46.20276" lon="7.44767"><ele></ele><time>2017-1-18T3:53:51Z</time></trkpt>
<trkpt lat="46.20253" lon="7.44757"><ele></ele><time>2017-1-18T3:53:54Z</time></trkpt>
<trkpt lat="46.20246" lon="7.44754"><ele></ele><time>2017-1-18T3:53:57Z</time></trkpt>
<trkpt lat="46.20239" lon="7.44752"><ele></ele><time>2017-1-18T3:54:0Z</time></trkpt>
<trkpt lat="46.20225" lon="7.44751"><ele></ele><time>2017-1-18T3:54:3Z</time></trkpt>
<trkpt lat="46.20212" lon="7.44751"><ele></ele><time>2017-1-18T3:54:6Z</time></trkpt>
<trkpt lat="46.20191" lon="7.44764"><ele></ele><time>2017-1-18T3:54:9Z</time></trkpt>
<trkpt lat="46.20179" lon="7.44773"><ele></ele><time>2017-1-18T3:54:12Z</time></trkpt>
<trkpt lat="46.2016" lon="7.44782"><ele></ele><time>2017-1-18T3:54:15Z</time></trkpt>
<trkpt lat="46.20142" lon="7.44794"><ele></ele><time>2017-1-18T3:54:18Z</time></trkpt>
<trkpt lat="46.20135" lon="7.44796"><ele></ele><time>2017-1-18T3:54:21Z</time></trkpt>
<trkpt lat="46.20113" lon="7.44796"><ele></ele><time>2017-1-18T3:54:24Z</time></trkpt>
<trkpt lat="46.20109" lon="7.44797"><ele></ele><time>2017-1-18T3:54:27Z</time></trkpt>
<trkpt lat="46.20092" lon="7.44812"><ele></ele><time>2017-1-18T3:54:30Z</time></trkpt>
<trkpt lat="46.20089" lon="7.44828"><ele></ele><time>2017-1-18T3:54:33Z</time></trkpt>
<trkpt lat="46.20086" lon="7.44846"><ele></ele><time>2017-1-18T3:54:36Z</time></trkpt>
<trkpt lat="46.20078" lon="7.44863"><ele></ele><time>2017-1-18T3:54:39Z</time></trkpt>
<trkpt lat="46.20073" lon="7.4487"><ele></ele><time>2017-1-18T3:54:42Z</time></trkpt>
<trkpt lat="46.20065" lon="7.44884"><ele></ele><time>2017-1-18T3:54:45Z</time></trkpt>
<trkpt lat="46.20054" lon="7.44908"><ele></ele><time>2017-1-18T3:54:48Z</time></trkpt>
<trkpt lat="46.20049" lon="7.44915"><ele></ele><time>2017-1-18T3:54:51Z</time></trkpt>
<trkpt lat="46.20033" lon="7.44933"><ele></ele><time>2017-1-18T3:54:54Z</time></trkpt>
<trkpt lat="46.20022" lon="7.44957"><ele></ele><time>2017-1-18T3:54:57Z</time></trkpt>
<trkpt lat="46.20018" lon="7.44965"><ele></ele><time>2017-1-18T3:55:0Z</time></trkpt>
<trkpt lat="46.20014" lon="7.44972"><ele></ele><time>2017-1-18T3:55:3Z</time></trkpt>
<trkpt lat="46.19997" lon="7.44969"><ele></ele><time>2017-1-18T3:55:6Z</time></trkpt>
<trkpt lat="46.20007" lon="7.44947"><ele></ele><time>2017-1-18T3:55:9Z</time></trkpt>
<trkpt lat="46.20011" lon="7.44941"><ele></ele><time>2017-1-18T3:55:12Z</time></trkpt>
<trkpt lat="46.20014" lon="7.44934"><ele></ele><time>2017-1-18T3:55:15Z</time></trkpt>
<trkpt lat="46.2002" lon="7.44917"><ele></ele><time>2017-1-18T3:55:18Z</time></trkpt>
<trkpt lat="46.20023" lon="7.44908"><ele></ele><time>2017-1-18T3:55:21Z</time></trkpt>
<trkpt lat="46.20024" lon="7.44877"><ele></ele><time>2017-1-18T3:55:24Z</time></trkpt>
<trkpt lat="46.20021" lon="7.44844"><ele></ele><time>2017-1-18T3:55:27Z</time></trkpt>
<trkpt lat="46.20019" lon="7.44834"><ele></ele><time>2017-1-18T3:55:30Z</time></trkpt>
<trkpt lat="46.20015" lon="7.44816"><ele></ele><time>2017-1-18T3:55:33Z</time></trkpt>
<trkpt lat="46.20004" lon="7.44788"><ele></ele><time>2017-1-18T3:55:36Z</time></trkpt>
<trkpt lat="46.20003" lon="7.44774"><ele></ele><time>2017-1-18T3:55:39Z</time></trkpt>
<trkpt lat="46.20005" lon="7.44767"><ele></ele><time>2017-1-18T3:55:42Z</time></trkpt>
<trkpt lat="46.20006" lon="7.44759"><ele></ele><time>2017-1-18T3:55:45Z</time></trkpt>
<trkpt lat="46.20009" lon="7.44752"><ele></ele><time>2017-1-18T3:55:48Z</time></trkpt>
<trkpt lat="46.20019" lon="7.44726"><ele></ele><time>2017-1-18T3:55:51Z</time></trkpt>
<trkpt lat="46.20027" lon="7.44691"><ele></ele><time>2017-1-18T3:55:54Z</time></trkpt>
<trkpt lat="46.20035" lon="7.44655"><ele></ele><time>2017-1-18T3:55:57Z</time></trkpt>
<trkpt lat="46.2004" lon="7.4463"><ele></ele><time>2017-1-18T3:56:0Z</time></trkpt>
<trkpt lat="46.2004" lon="7.44617"><ele></ele><time>2017-1-18T3:56:3Z</time></trkpt>
<trkpt lat="46.20042" lon="7.44583"><ele></ele><time>2017-1-18T3:56:6Z</time></trkpt>
<trkpt lat="46.20044" lon="7.44562"><ele></ele><time>2017-1-18T3:56:9Z</time></trkpt>
<trkpt lat="46.20053" lon="7.44532"><ele></ele><time>2017-1-18T3:56:12Z</time></trkpt>
<trkpt lat="46.20064" lon="7.44505"><ele></ele><time>2017-1-18T3:56:15Z</time></trkpt>
<trkpt lat="46.20068" lon="7.44498"><ele></ele><time>2017-1-18T3:56:18Z</time></trkpt>
<trkpt lat="46.20083" lon="7.44475"><ele></ele><time>2017-1-18T3:56:21Z</time></trkpt>
<trkpt lat="46.20099" lon="7.44455"><ele></ele><time>2017-1-18T3:56:24Z</time></trkpt>
<trkpt lat="46.20103" lon="7.44448"><ele></ele><time>2017-1-18T3:56:27Z</time></trkpt>
<trkpt lat="46.20109" lon="7.44421"><ele></ele><time>2017-1-18T3:56:30Z</time></trkpt>
<trkpt lat="46.20111" lon="7.44394"><ele></ele><time>2017-1-18T3:56:33Z</time></trkpt>
<trkpt lat="46.20118" lon="7.44368"><ele></ele><time>2017-1-18T3:56:36Z</time></trkpt>
<trkpt lat="46.2013" lon="7.44338"><ele></ele><time>2017-1-18T3:56:39Z</time></trkpt>
<trkpt lat="46.20144" lon="7.44308"><ele></ele><time>2017-1-18T3:56:42Z</time></trkpt>
<trkpt lat="46.20156" lon="7.44279"><ele></ele><time>2017-1-18T3:56:45Z</time></trkpt>
<trkpt lat="46.20168" lon="7.44255"><ele></ele><time>2017-1-18T3:56:48Z</time></trkpt>
<trkpt lat="46.20176" lon="7.44243"><ele></ele><time>2017-1-18T3:56:51Z</time></trkpt>
<trkpt lat="46.20198" lon="7.44231"><ele></ele><time>2017-1-18T3:56:54Z</time></trkpt>
<trkpt lat="46.20209" lon="7.44231"><ele></ele><time>2017-1-18T3:56:57Z</time></trkpt>
<trkpt lat="46.2022" lon="7.4423"><ele></ele><time>2017-1-18T3:57:0Z</time></trkpt>
<trkpt lat="46.20236" lon="7.44216"><ele></ele><time>2017-1-18T3:57:3Z</time></trkpt>
<trkpt lat="46.20239" lon="7.44211"><ele></ele><time>2017-1-18T3:57:6Z</time></trkpt>
<trkpt lat="46.20247" lon="7.44196"><ele></ele><time>2017-1-18T3:57:9Z</time></trkpt>
<trkpt lat="46.20249" lon="7.44189"><ele></ele><time>2017-1-18T3:57:12Z</time></trkpt>
<trkpt lat="46.20248" lon="7.44189"><ele></ele><time>2017-1-18T3:57:15Z</time></trkpt>
<trkpt lat="46.20248" lon="7.44189"><ele></ele><time>2017-1-18T3:57:18Z</time></trkpt>
<trkpt lat="46.20248" lon="7.44189"><ele></ele><time>2017-1-18T3:57:21Z</time></trkpt>
<trkpt lat="46.20248" lon="7.44189"><ele></ele><time>2017-1-18T3:57:24Z</time></trkpt>
<trkpt lat="46.20245" lon="7.44189"><ele></ele><time>2017-1-18T3:57:27Z</time></trkpt>
<trkpt lat="46.20245" lon="7.4419"><ele></ele><time>2017-1-18T3:57:30Z</time></trkpt>
<trkpt lat="46.20244" lon="7.4419"><ele></ele><time>2017-1-18T3:57:33Z</time></trkpt>
<trkpt lat="46.20244" lon="7.4419"><ele></ele><time>2017-1-18T3:57:36Z</time></trkpt>
<trkpt lat="46.20243" lon="7.44189"><ele></ele><time>2017-1-18T3:57:39Z</time></trkpt>
<trkpt lat="46.2024" lon="7.44189"><ele></ele><time>2017-1-18T3:57:42Z</time></trkpt>
<trkpt lat="46.20232" lon="7.44188"><ele></ele><time>2017-1-18T3:57:45Z</time></trkpt>
<trkpt lat="46.20212" lon="7.4418"><ele></ele><time>2017-1-18T3:57:48Z</time></trkpt>
<trkpt lat="46.20194" lon="7.44169"><ele></ele><time>2017-1-18T3:57:51Z</time></trkpt>
<trkpt lat="46.20176" lon="7.4417"><ele></ele><time>2017-1-18T3:57:54Z</time></trkpt>
<trkpt lat="46.2017" lon="7.44171"><ele></ele><time>2017-1-18T3:57:57Z</time></trkpt>
<trkpt lat="46.20149" lon="7.44167"><ele></ele><time>2017-1-18T3:58:0Z</time></trkpt>
<trkpt lat="46.20128" lon="7.44163"><ele></ele><time>2017-1-18T3:58:3Z</time></trkpt>
<trkpt lat="46.20105" lon="7.44164"><ele></ele><time>2017-1-18T3:58:6Z</time></trkpt>
<trkpt lat="46.20086" lon="7.44165"><ele></ele><time>2017-1-18T3:58:9Z</time></trkpt>
<trkpt lat="46.20064" lon="7.44167"><ele></ele><time>2017-1-18T3:58:12Z</time></trkpt>
<trkpt lat="46.20054" lon="7.44166"><ele></ele><time>2017-1-18T3:58:15Z</time></trkpt>
<trkpt lat="46.20035" lon="7.44158"><ele></ele><time>2017-1-18T3:58:18Z</time></trkpt>
<trkpt lat="46.2003" lon="7.44156"><ele></ele><time>2017-1-18T3:58:21Z</time></trkpt>
<trkpt lat="46.20011" lon="7.44156"><ele></ele><time>2017-1-18T3:58:24Z</time></trkpt>
<trkpt lat="46.19994" lon="7.44165"><ele></ele><time>2017-1-18T3:58:27Z</time></trkpt>
<trkpt lat="46.19976" lon="7.44177"><ele></ele><time>2017-1-18T3:58:30Z</time></trkpt>
<trkpt lat="46.19965" lon="7.44188"><ele></ele><time>2017-1-18T3:58:33Z</time></trkpt>
<trkpt lat="46.19947" lon="7.44209"><ele></ele><time>2017-1-18T3:58:36Z</time></trkpt>
<trkpt lat="46.19928" lon="7.44232"><ele></ele><time>2017-1-18T3:58:39Z</time></trkpt>
<trkpt lat="46.19909" lon="7.4425"><ele></ele><time>2017-1-18T3:58:42Z</time></trkpt>
<trkpt lat="46.19898" lon="7.44265"><ele></ele><time>2017-1-18T3:58:45Z</time></trkpt>
<trkpt lat="46.19884" lon="7.44293"><ele></ele><time>2017-1-18T3:58:48Z</time></trkpt>
<trkpt lat="46.1988" lon="7.44302"><ele></ele><time>2017-1-18T3:58:51Z</time></trkpt>
<trkpt lat="46.19875" lon="7.44312"><ele></ele><time>2017-1-18T3:58:54Z</time></trkpt>
<trkpt lat="46.19871" lon="7.44321"><ele></ele><time>2017-1-18T3:58:57Z</time></trkpt>
<trkpt lat="46.19861" lon="7.44339"><ele></ele><time>2017-1-18T3:59:0Z</time></trkpt>
<trkpt lat="46.19844" lon="7.44356"><ele></ele><time>2017-1-18T3:59:3Z</time></trkpt>
<trkpt lat="46.19833" lon="7.44381"><ele></ele><time>2017-1-18T3:59:6Z</time></trkpt>
<trkpt lat="46.19829" lon="7.44406"><ele></ele><time>2017-1-18T3:59:9Z</time></trkpt>
<trkpt lat="46.19825" lon="7.44434"><ele></ele><time>2017-1-18T3:59:12Z</time></trkpt>
<trkpt lat="46.19822" lon="7.44448"><ele></ele><time>2017-1-18T3:59:15Z</time></trkpt>
<trkpt lat="46.19814" lon="7.44475"><ele></ele><time>2017-1-18T3:59:18Z</time></trkpt>
<trkpt lat="46.19807" lon="7.44501"><ele></ele><time>2017-1-18T3:59:21Z</time></trkpt>
<trkpt lat="46.19806" lon="7.44535"><ele></ele><time>2017-1-18T3:59:24Z</time></trkpt>
<trkpt lat="46.19806" lon="7.44553"><ele></ele><time>2017-1-18T3:59:27Z</time></trkpt>
<trkpt lat="46.19802" lon="7.44562"><ele></ele><time>2017-1-18T3:59:30Z</time></trkpt>
<trkpt lat="46.19792" lon="7.4454"><ele></ele><time>2017-1-18T3:59:33Z</time></trkpt>
<trkpt lat="46.19792" lon="7.44532"><ele></ele><time>2017-1-18T3:59:36Z</time></trkpt>
<trkpt lat="46.19791" lon="7.44504"><ele></ele><time>2017-1-18T3:59:39Z</time></trkpt>
<trkpt lat="46.1979" lon="7.44468"><ele></ele><time>2017-1-18T3:59:42Z</time></trkpt>
<trkpt lat="46.1979" lon="7.44441"><ele></ele><time>2017-1-18T3:59:45Z</time></trkpt>
<trkpt lat="46.19789" lon="7.44411"><ele></ele><time>2017-1-18T3:59:48Z</time></trkpt>
<trkpt lat="46.19788" lon="7.4438"><ele></ele><time>2017-1-18T3:59:51Z</time></trkpt>
<trkpt lat="46.19787" lon="7.44346"><ele></ele><time>2017-1-18T3:59:54Z</time></trkpt>
<trkpt lat="46.19786" lon="7.44312"><ele></ele><time>2017-1-18T3:59:57Z</time></trkpt>
<trkpt lat="46.19785" lon="7.44279"><ele></ele><time>2017-1-18T4:0:0Z</time></trkpt>
<trkpt lat="46.19784" lon="7.44247"><ele></ele><time>2017-1-18T4:0:3Z</time></trkpt>
<trkpt lat="46.19783" lon="7.44215"><ele></ele><time>2017-1-18T4:0:6Z</time></trkpt>
<trkpt lat="46.19781" lon="7.44184"><ele></ele><time>2017-1-18T4:0:9Z</time></trkpt>
<trkpt lat="46.1978" lon="7.44153"><ele></ele><time>2017-1-18T4:0:12Z</time></trkpt>
<trkpt lat="46.19779" lon="7.44123"><ele></ele><time>2017-1-18T4:0:15Z</time></trkpt>
<trkpt lat="46.19778" lon="7.44092"><ele></ele><time>2017-1-18T4:0:18Z</time></trkpt>
<trkpt lat="46.19779" lon="7.44059"><ele></ele><time>2017-1-18T4:0:21Z</time></trkpt>
<trkpt lat="46.19784" lon="7.44026"><ele></ele><time>2017-1-18T4:0:24Z</time></trkpt>
<trkpt lat="46.19788" lon="7.43992"><ele></ele><time>2017-1-18T4:0:27Z</time></trkpt>
<trkpt lat="46.19793" lon="7.43959"><ele></ele><time>2017-1-18T4:0:30Z</time></trkpt>
<trkpt lat="46.19799" lon="7.43926"><ele></ele><time>2017-1-18T4:0:33Z</time></trkpt>
<trkpt lat="46.19803" lon="7.43911"><ele></ele><time>2017-1-18T4:0:36Z</time></trkpt>
<trkpt lat="46.19811" lon="7.43881"><ele></ele><time>2017-1-18T4:0:39Z</time></trkpt>
<trkpt lat="46.19822" lon="7.43852"><ele></ele><time>2017-1-18T4:0:42Z</time></trkpt>
<trkpt lat="46.19834" lon="7.43824"><ele></ele><time>2017-1-18T4:0:45Z</time></trkpt>
<trkpt lat="46.19849" lon="7.43798"><ele></ele><time>2017-1-18T4:0:48Z</time></trkpt>
<trkpt lat="46.19864" lon="7.43772"><ele></ele><time>2017-1-18T4:0:51Z</time></trkpt>
<trkpt lat="46.1988" lon="7.43745"><ele></ele><time>2017-1-18T4:0:54Z</time></trkpt>
<trkpt lat="46.19894" lon="7.43718"><ele></ele><time>2017-1-18T4:0:57Z</time></trkpt>
<trkpt lat="46.19905" lon="7.43688"><ele></ele><time>2017-1-18T4:1:0Z</time></trkpt>
<trkpt lat="46.19912" lon="7.43657"><ele></ele><time>2017-1-18T4:1:3Z</time></trkpt>
<trkpt lat="46.19919" lon="7.43625"><ele></ele><time>2017-1-18T4:1:6Z</time></trkpt>
<trkpt lat="46.19925" lon="7.43594"><ele></ele><time>2017-1-18T4:1:9Z</time></trkpt>
<trkpt lat="46.19928" lon="7.43564"><ele></ele><time>2017-1-18T4:1:12Z</time></trkpt>
<trkpt lat="46.19927" lon="7.43535"><ele></ele><time>2017-1-18T4:1:15Z</time></trkpt>
<trkpt lat="46.19922" lon="7.43508"><ele></ele><time>2017-1-18T4:1:18Z</time></trkpt>
<trkpt lat="46.19919" lon="7.43496"><ele></ele><time>2017-1-18T4:1:21Z</time></trkpt>
<trkpt lat="46.19917" lon="7.43484"><ele></ele><time>2017-1-18T4:1:24Z</time></trkpt>
<trkpt lat="46.19917" lon="7.43462"><ele></ele><time>2017-1-18T4:1:27Z</time></trkpt>
<trkpt lat="46.19919" lon="7.4345"><ele></ele><time>2017-1-18T4:1:30Z</time></trkpt>
<trkpt lat="46.19922" lon="7.43438"><ele></ele><time>2017-1-18T4:1:33Z</time></trkpt>
<trkpt lat="46.19928" lon="7.43413"><ele></ele><time>2017-1-18T4:1:36Z</time></trkpt>
<trkpt lat="46.19935" lon="7.43385"><ele></ele><time>2017-1-18T4:1:39Z</time></trkpt>
<trkpt lat="46.19943" lon="7.43356"><ele></ele><time>2017-1-18T4:1:42Z</time></trkpt>
<trkpt lat="46.1995" lon="7.43327"><ele></ele><time>2017-1-18T4:1:45Z</time></trkpt>
<trkpt lat="46.19957" lon="7.43301"><ele></ele><time>2017-1-18T4:1:48Z</time></trkpt>
<trkpt lat="46.19964" lon="7.43277"><ele></ele><time>2017-1-18T4:1:51Z</time></trkpt>
<trkpt lat="46.19968" lon="7.43266"><ele></ele><time>2017-1-18T4:1:54Z</time></trkpt>
<trkpt lat="46.19985" lon="7.43242"><ele></ele><time>2017-1-18T4:1:57Z</time></trkpt>
<trkpt lat="46.19992" lon="7.43237"><ele></ele><time>2017-1-18T4:2:0Z</time></trkpt>
<trkpt lat="46.2001" lon="7.4323"><ele></ele><time>2017-1-18T4:2:3Z</time></trkpt>
<trkpt lat="46.20025" lon="7.43226"><ele></ele><time>2017-1-18T4:2:6Z</time></trkpt>
<trkpt lat="46.20044" lon="7.43237"><ele></ele><time>2017-1-18T4:2:9Z</time></trkpt>
<trkpt lat="46.20061" lon="7.43251"><ele></ele><time>2017-1-18T4:2:12Z</time></trkpt>
<trkpt lat="46.20063" lon="7.43252"><ele></ele><time>2017-1-18T4:2:15Z</time></trkpt>
<trkpt lat="46.2007" lon="7.43256"><ele></ele><time>2017-1-18T4:2:18Z</time></trkpt>
<trkpt lat="46.20078" lon="7.43265"><ele></ele><time>2017-1-18T4:2:21Z</time></trkpt>
<trkpt lat="46.20083" lon="7.43275"><ele></ele><time>2017-1-18T4:2:24Z</time></trkpt>
<trkpt lat="46.20087" lon="7.43288"><ele></ele><time>2017-1-18T4:2:27Z</time></trkpt>
<trkpt lat="46.20088" lon="7.43291"><ele></ele><time>2017-1-18T4:2:30Z</time></trkpt>
<trkpt lat="46.20101" lon="7.43328"><ele></ele><time>2017-1-18T4:2:33Z</time></trkpt>
<trkpt lat="46.20104" lon="7.43339"><ele></ele><time>2017-1-18T4:2:36Z</time></trkpt>
<trkpt lat="46.20107" lon="7.4335"><ele></ele><time>2017-1-18T4:2:39Z</time></trkpt>
<trkpt lat="46.2011" lon="7.43374"><ele></ele><time>2017-1-18T4:2:42Z</time></trkpt>
<trkpt lat="46.20115" lon="7.43399"><ele></ele><time>2017-1-18T4:2:45Z</time></trkpt>
<trkpt lat="46.2012" lon="7.43415"><ele></ele><time>2017-1-18T4:2:48Z</time></trkpt>
<trkpt lat="46.20123" lon="7.43422"><ele></ele><time>2017-1-18T4:2:51Z</time></trkpt>
<trkpt lat="46.20125" lon="7.4343"><ele></ele><time>2017-1-18T4:2:54Z</time></trkpt>
<trkpt lat="46.20132" lon="7.43446"><ele></ele><time>2017-1-18T4:2:57Z</time></trkpt>
<trkpt lat="46.20137" lon="7.43454"><ele></ele><time>2017-1-18T4:3:0Z</time></trkpt>
<trkpt lat="46.20138" lon="7.43456"><ele></ele><time>2017-1-18T4:3:3Z</time></trkpt>
<trkpt lat="46.20147" lon="7.43471"><ele></ele><time>2017-1-18T4:3:6Z</time></trkpt>
<trkpt lat="46.20162" lon="7.43489"><ele></ele><time>2017-1-18T4:3:9Z</time></trkpt>
<trkpt lat="46.20175" lon="7.43509"><ele></ele><time>2017-1-18T4:3:12Z</time></trkpt>
<trkpt lat="46.2018" lon="7.43523"><ele></ele><time>2017-1-18T4:3:15Z</time></trkpt>
<trkpt lat="46.20181" lon="7.43525"><ele></ele><time>2017-1-18T4:3:18Z</time></trkpt>
<trkpt lat="46.20186" lon="7.43539"><ele></ele><time>2017-1-18T4:3:21Z</time></trkpt>
<trkpt lat="46.20191" lon="7.43551"><ele></ele><time>2017-1-18T4:3:24Z</time></trkpt>
<trkpt lat="46.20201" lon="7.43573"><ele></ele><time>2017-1-18T4:3:27Z</time></trkpt>
<trkpt lat="46.20208" lon="7.43594"><ele></ele><time>2017-1-18T4:3:30Z</time></trkpt>
<trkpt lat="46.20209" lon="7.43596"><ele></ele><time>2017-1-18T4:3:33Z</time></trkpt>
<trkpt lat="46.20215" lon="7.43621"><ele></ele><time>2017-1-18T4:3:36Z</time></trkpt>
<trkpt lat="46.20219" lon="7.4363"><ele></ele><time>2017-1-18T4:3:39Z</time></trkpt>
<trkpt lat="46.20223" lon="7.43639"><ele></ele><time>2017-1-18T4:3:42Z</time></trkpt>
<trkpt lat="46.20236" lon="7.43658"><ele></ele><time>2017-1-18T4:3:45Z</time></trkpt>
<trkpt lat="46.20247" lon="7.43681"><ele></ele><time>2017-1-18T4:3:48Z</time></trkpt>
<trkpt lat="46.20261" lon="7.43697"><ele></ele><time>2017-1-18T4:3:51Z</time></trkpt>
<trkpt lat="46.20274" lon="7.43716"><ele></ele><time>2017-1-18T4:3:54Z</time></trkpt>
<trkpt lat="46.20279" lon="7.43719"><ele></ele><time>2017-1-18T4:3:57Z</time></trkpt>
<trkpt lat="46.20288" lon="7.43728"><ele></ele><time>2017-1-18T4:4:0Z</time></trkpt>
<trkpt lat="46.20291" lon="7.43733"><ele></ele><time>2017-1-18T4:4:3Z</time></trkpt>
<trkpt lat="46.20301" lon="7.43757"><ele></ele><time>2017-1-18T4:4:6Z</time></trkpt>
<trkpt lat="46.20304" lon="7.43765"><ele></ele><time>2017-1-18T4:4:9Z</time></trkpt>
<trkpt lat="46.20316" lon="7.43788"><ele></ele><time>2017-1-18T4:4:12Z</time></trkpt>
<trkpt lat="46.20332" lon="7.43802"><ele></ele><time>2017-1-18T4:4:15Z</time></trkpt>
<trkpt lat="46.20347" lon="7.43818"><ele></ele><time>2017-1-18T4:4:18Z</time></trkpt>
<trkpt lat="46.20359" lon="7.4384"><ele></ele><time>2017-1-18T4:4:21Z</time></trkpt>
<trkpt lat="46.20363" lon="7.43847"><ele></ele><time>2017-1-18T4:4:24Z</time></trkpt>
<trkpt lat="46.20379" lon="7.43873"><ele></ele><time>2017-1-18T4:4:27Z</time></trkpt>
<trkpt lat="46.20383" lon="7.43881"><ele></ele><time>2017-1-18T4:4:30Z</time></trkpt>
<trkpt lat="46.20398" lon="7.439"><ele></ele><time>2017-1-18T4:4:33Z</time></trkpt>
<trkpt lat="46.20415" lon="7.43911"><ele></ele><time>2017-1-18T4:4:36Z</time></trkpt>
<trkpt lat="46.20417" lon="7.43915"><ele></ele><time>2017-1-18T4:4:39Z</time></trkpt>
<trkpt lat="46.20435" lon="7.43922"><ele></ele><time>2017-1-18T4:4:42Z</time></trkpt>
<trkpt lat="46.20448" lon="7.43942"><ele></ele><time>2017-1-18T4:4:45Z</time></trkpt>
<trkpt lat="46.20462" lon="7.43958"><ele></ele><time>2017-1-18T4:4:48Z</time></trkpt>
<trkpt lat="46.20478" lon="7.43973"><ele></ele><time>2017-1-18T4:4:51Z</time></trkpt>
<trkpt lat="46.20496" lon="7.43983"><ele></ele><time>2017-1-18T4:4:54Z</time></trkpt>
<trkpt lat="46.205" lon="7.43985"><ele></ele><time>2017-1-18T4:4:57Z</time></trkpt>
<trkpt lat="46.2052" lon="7.43995"><ele></ele><time>2017-1-18T4:5:0Z</time></trkpt>
<trkpt lat="46.2053" lon="7.44003"><ele></ele><time>2017-1-18T4:5:3Z</time></trkpt>
<trkpt lat="46.20544" lon="7.44015"><ele></ele><time>2017-1-18T4:5:6Z</time></trkpt>
<trkpt lat="46.20562" lon="7.44025"><ele></ele><time>2017-1-18T4:5:9Z</time></trkpt>
<trkpt lat="46.20565" lon="7.44027"><ele></ele><time>2017-1-18T4:5:12Z</time></trkpt>
<trkpt lat="46.20568" lon="7.44029"><ele></ele><time>2017-1-18T4:5:15Z</time></trkpt>
<trkpt lat="46.20574" lon="7.44035"><ele></ele><time>2017-1-18T4:5:18Z</time></trkpt>
<trkpt lat="46.20576" lon="7.44034"><ele></ele><time>2017-1-18T4:5:21Z</time></trkpt>
<trkpt lat="46.20577" lon="7.44028"><ele></ele><time>2017-1-18T4:5:24Z</time></trkpt>
<trkpt lat="46.20574" lon="7.44019"><ele></ele><time>2017-1-18T4:5:27Z</time></trkpt>
<trkpt lat="46.20569" lon="7.44002"><ele></ele><time>2017-1-18T4:5:30Z</time></trkpt>
<trkpt lat="46.20562" lon="7.43985"><ele></ele><time>2017-1-18T4:5:33Z</time></trkpt>
<trkpt lat="46.20562" lon="7.43979"><ele></ele><time>2017-1-18T4:5:36Z</time></trkpt>
<trkpt lat="46.20575" lon="7.43968"><ele></ele><time>2017-1-18T4:5:39Z</time></trkpt>
<trkpt lat="46.20585" lon="7.4396"><ele></ele><time>2017-1-18T4:5:42Z</time></trkpt>
<trkpt lat="46.20603" lon="7.43955"><ele></ele><time>2017-1-18T4:5:45Z</time></trkpt>
<trkpt lat="46.20612" lon="7.43953"><ele></ele><time>2017-1-18T4:5:48Z</time></trkpt>
<trkpt lat="46.2063" lon="7.43953"><ele></ele><time>2017-1-18T4:5:51Z</time></trkpt>
<trkpt lat="46.20654" lon="7.43964"><ele></ele><time>2017-1-18T4:5:54Z</time></trkpt>
<trkpt lat="46.20668" lon="7.43971"><ele></ele><time>2017-1-18T4:5:57Z</time></trkpt>
<trkpt lat="46.20669" lon="7.4396"><ele></ele><time>2017-1-18T4:6:0Z</time></trkpt>
<trkpt lat="46.20669" lon="7.43959"><ele></ele><time>2017-1-18T4:6:3Z</time></trkpt>
<trkpt lat="46.20668" lon="7.43957"><ele></ele><time>2017-1-18T4:6:6Z</time></trkpt>
<trkpt lat="46.20666" lon="7.43957"><ele></ele><time>2017-1-18T4:6:9Z</time></trkpt>
<trkpt lat="46.20666" lon="7.43956"><ele></ele><time>2017-1-18T4:6:12Z</time></trkpt>
<trkpt lat="46.20665" lon="7.43956"><ele></ele><time>2017-1-18T4:6:15Z</time></trkpt>
<trkpt lat="46.20665" lon="7.43956"><ele></ele><time>2017-1-18T4:6:18Z</time></trkpt>
</trkseg></trk></gpx>